Gilbert Plains, Canada
Current Conditions -  °F | °C
As of 5:00 PM on Wednesday 22 Oct 2014 (Local Time) from CYDN Reporting Station
Clear Clear  
Wind Chill: 19°   Ceiling: Unl
Heat Index: 19°   Visibility: 9mi
Dew Point:   Wind: 9mph
Humidity: 52%   Direction: 240°WSW
Pressure: 29.6"   Gusts: NA
Location:  51.13°N, 100.48°W
Report Text: CYDN 222200Z AUTO 24008KT 9SM CLR 19/09 A2960 RMK SLP029 DENSITY ALT 2000FT
Loading
Personal Weather Stations






























Interactive Weather Map
Tropical Storm Tracking
New forecast layout! Learn more

10-Day Weather Forecast

Advertisements
Track Severe Weather on mobile